Tiempo atmosférico en la estación meteorológica de El Bosque, Cádiz (295 m.)



Fecha
DESCASC
Temp. máxima en grados centígrados (hora)
DESCASC
Temp. mínima en grados centígrados (hora)
DESCASC
Temp. media en grados centígrados
DESCASC
Racha de viento máxima en m/sg (hora)
DESCASC
Velocidad máxima media en intervalos de 10 minutos(hora)
DESCASC
Precipitaciones diarias en mm
DESCASC
Precipitaciones de 00:00 a 06:00 en mm
DESCASC
Precipitaciones de 06:00 a 12:00 en mm
DESCASC
Precipitaciones de 12:00 a 18:00 en mm
DESCASC
Precipitaciones de 18:00 a 24:00 en mm
DESCASC
23-05-2018 26.1 (17:50) 12.5 (05:50) 19.3 5 (18:10) 3.61 (18:10) 0 0 0 0 0
22-05-2018 25.6 (18:50) 12.4 (07:00) 19 5.83 (16:50) 2.78 (16:50) 0 0 0 0 0
21-05-2018 24.5 (17:00) 11.2 (03:10) 17.8 8.61 (18:20) 4.72 (18:20) 0 0 0 0 0
20-05-2018 23.8 (13:20) 11.8 (00:00) 17.8 8.61 (14:40) 5.56 (14:40) 7.6 0 0 0.8 6.8
19-05-2018 24.5 (14:20) 11 (00:00) 17.8 10.83 (18:20) 5.28 (14:10) 7 0 0 6.4 0.6
18-05-2018 24.2 (14:30) 12.5 (00:00) 18.4 12.22 (18:20) 6.94 (16:30) 0 0 0 0 0
17-05-2018 26.1 (15:00) 11.6 (00:00) 18.9 10.28 (17:50) 6.11 (17:50) 0 0 0 0 0
16-05-2018 26.5 (16:20) 10.6 (00:00) 18.6 10.83 (17:20) 6.94 (17:30) 0 0 0 0 0
15-05-2018 26.1 (15:40) 9.8 (00:00) 18 7.78 (14:10) 5 (13:50) 0 0 0 0 0
14-05-2018 25.5 (16:00) 7.1 (00:00) 16.3 9.72 (17:30) 5.83 (17:50) 0 0 0 0 0
13-05-2018 21.5 (17:50) 8.1 (00:00) 14.8 9.72 (16:40) 5.56 (16:00) 0 0 0 0 0
12-05-2018 20.6 (17:50) 11.4 (00:00) 16 8.33 (17:00) 4.17 (17:10) 0 0 0 0 0
11-05-2018 24.2 (16:00) 9.2 (07:00) 16.7 6.94 (17:20) 3.89 (15:20) 0 0 0 0 0
10-05-2018 22.3 (16:00) 13.6 (00:00) 17.9 7.78 (16:10) 5 (16:20) 0.2 0 0.2 0 0
09-05-2018 17.3 (12:30) 12.2 (00:00) 14.7 7.22 (21:50) 3.89 (22:10) 0 0 0 0 0
08-05-2018 24.7 (16:00) 11 (00:00) 17.9 8.61 (17:50) 4.72 (17:50) 0 0 0 0 0
07-05-2018 24.3 (15:50) 11.5 (00:00) 17.9 5.28 (17:00) 3.61 (17:10) 0 0 0 0 0
06-05-2018 24.4 (15:20) 12 (00:00) 18.2 10.28 (20:00) 6.67 (20:00) 0 0 0 0 0
05-05-2018 23.2 (18:40) 7.4 (00:00) 15.3 5.28 (14:10) 2.78 (22:00) 0 0 0 0 0
04-05-2018 21 (14:00) 9.9 (00:00) 15.4 11.39 (16:40) 7.22 (16:30) 9.8 0 0 8.4 1.4
03-05-2018 22.3 (18:00) 5.2 (00:00) 13.7 9.17 (16:50) 5.28 (17:00) -- -- 0 0 0
02-05-2018 18.9 (16:30) 5.2 (00:00) 12 6.67 (17:10) 3.61 (19:00) -- -- -- -- --
01-05-2018 17.2 (16:20) 6.4 (08:00) 11.8 11.39 (17:20) 5.83 (17:20) -- -- -- -- --
30-04-2018 16.2 (14:20) 6.6 (00:00) 11.4 7.22 (14:20) 3.89 (16:00) -- -- -- -- --
29-04-2018 16.6 (15:20) 8.7 (00:00) 12.7 10.56 (18:10) 5.56 (15:40) -- -- -- -- --
28-04-2018 17.9 (14:40) 9.5 (00:00) 13.7 8.89 (23:50) 5 (23:50) -- -- -- -- --
27-04-2018 23.9 (16:20) 11.6 (00:00) 17.8 8.06 (02:40) 4.72 (02:50) -- -- -- -- --
26-04-2018 22 (19:00) 12 (00:00) 17 7.22 (23:10) 3.89 (23:10) -- -- -- -- --
25-04-2018 22.8 (17:10) 12.4 (00:00) 17.6 6.11 (00:20) 3.89 (01:10) 0.4 0.2 0 0 0.2

Gráficas

Temp. máximas Temp. mínimas Temp. medias Precipitaciones Rachas de viento máximas Velocidades máximas media en intervalos de 10 minutos

Datos horarios

Fecha y hora oficial Temperatura (ºC) Velocidad del viento (km/h) Dirección del viento Racha (km/h) Dirección de racha Precipitación (mm) Presión (hPa) Tendencia (hPa) Humedad (%)
2018-05-24 23:00:00 14.4 4 Nordeste 6 Norte 0 -- -- 83
2018-05-24 22:00:00 15.6 3 Este 6 Este 0 -- -- 80
2018-05-24 21:00:00 16.6 3 Sudoeste 6 Sudoeste 0 -- -- 75
2018-05-24 20:00:00 16.6 4 Sudoeste 7 Sudeste 0 -- -- 76
2018-05-24 19:00:00 16.3 0 Calma 7 Oeste 0 -- -- 77
2018-05-24 18:00:00 16.3 3 Oeste 19 Oeste 0 -- -- 76
2018-05-24 17:00:00 17.5 9 Oeste 26 Oeste 0 -- -- 65
2018-05-24 16:00:00 19.1 10 Oeste 21 Oeste 0 -- -- 60
2018-05-24 15:00:00 20 8 Oeste 18 Oeste 0 -- -- 61
2018-05-24 14:00:00 19.9 9 Noroeste 21 Oeste 0 -- -- 67
2018-05-24 13:00:00 20.3 8 Oeste 23 Norte 0 -- -- 69
2018-05-24 12:00:00 20.2 8 Noroeste 21 Noroeste 0 -- -- 68
2018-05-24 11:00:00 19.6 6 Oeste 16 Noroeste 0 -- -- 69
2018-05-24 10:00:00 17.6 4 Oeste 10 Sur 0 -- -- 77
2018-05-24 09:00:00 15.6 3 Sudeste 8 Norte 0 -- -- 82
2018-05-24 08:00:00 12.7 0 Calma 10 Sudeste 0 -- -- 91
2018-05-24 07:00:00 13.1 6 Este 9 Este 0 -- -- 90
2018-05-24 06:00:00 13.6 5 Este 9 Este 0 -- -- 90
2018-05-24 05:00:00 14.3 2 Nordeste 11 Norte 0 -- -- 85
2018-05-24 04:00:00 14.6 4 Norte 8 Nordeste 0 -- -- 91
2018-05-24 03:00:00 15.2 3 Nordeste 10 Sudeste 0 -- -- 90
2018-05-24 02:00:00 15.3 3 Noroeste 9 Este 0 -- -- 88
2018-05-24 01:00:00 16.3 3 Nordeste 8 Este 0 -- -- 85
2018-05-24 00:00:00 17.6 3 Noroeste 5 Nordeste 0 -- -- 80
2018-05-23 23:00:00 18.9 0 Calma 9 Norte 0 -- -- 78
2018-05-23 22:00:00 20 5 Noroeste 10 Noroeste 0 -- -- 74
2018-05-23 21:00:00 21.7 4 Noroeste 16 Noroeste 0 -- -- 69
2018-05-23 20:00:00 24 3 Noroeste 11 Oeste 0 -- -- 53
2018-05-23 19:00:00 25.4 6 Oeste 18 Sudoeste 0 -- -- 49
2018-05-23 18:00:00 26 6 Oeste 18 Sur 0 -- -- 44
2018-05-23 17:00:00 25.4 6 Noroeste 15 Noroeste 0 -- -- 48
2018-05-23 16:00:00 24.9 8 Norte 16 Norte 0 -- -- 51
2018-05-23 15:00:00 25.2 6 Noroeste 17 Norte 0 -- -- 46
2018-05-23 14:00:00 24.8 6 Noroeste 16 Sudoeste 0 -- -- 47
2018-05-23 13:00:00 23.8 6 Sudoeste 11 Noroeste 0 -- -- 46
2018-05-23 12:00:00 21.9 4 Noroeste 8 Noroeste 0 -- -- 53
2018-05-23 11:00:00 19 6 Norte 12 Sudoeste 0 -- -- 64
2018-05-23 10:00:00 17.2 3 Oeste 7 Oeste 0 -- -- 82
2018-05-23 09:00:00 16 2 Sudeste 8 Este 0 -- -- 82
2018-05-23 08:00:00 13.1 2 Este 8 Sudeste 0 -- -- 91
2018-05-23 07:00:00 12.5 3 Nordeste 7 Este 0 -- -- 89
2018-05-23 06:00:00 12.5 4 Este 8 Este 0 -- -- 90
2018-05-23 05:00:00 13.1 0 Calma 11 Este 0 -- -- 88
2018-05-23 04:00:00 13.6 0 Calma 9 Este -- -- -- 88
2018-05-23 03:00:00 14.2 5 Este 9 Este 0 -- -- 85
2018-05-23 02:00:00 14.8 6 Este 9 Este 0 -- -- 84
2018-05-23 01:00:00 15.5 5 Este 8 Este 0 -- -- 82
2018-05-23 00:00:00 16.7 5 Sudeste 9 Este 0 -- -- 79
2018-05-22 23:00:00 18.1 2 Este 8 Este 0 -- -- 72
2018-05-22 22:00:00 20.3 2 Sudeste 7 Sur 0 -- -- 63
2018-05-22 21:00:00 22.4 4 Norte 9 Norte 0 -- -- 55
2018-05-22 20:00:00 23.7 3 Noroeste 11 Oeste 0 -- -- 51
2018-05-22 19:00:00 24.8 5 Noroeste 16 Oeste 0 -- -- 47
2018-05-22 18:00:00 24.9 6 Oeste 18 Noroeste 0 -- -- 44
2018-05-22 17:00:00 24.9 10 Oeste 21 Oeste 0 -- -- 48
2018-05-22 16:00:00 24.6 7 Noroeste 16 Oeste 0 -- -- 53
2018-05-22 15:00:00 23.5 8 Oeste 19 Oeste 0 -- -- 57
2018-05-22 14:00:00 22.4 6 Noroeste 16 Oeste 0 -- -- 62
2018-05-22 13:00:00 20.5 5 Noroeste 14 Oeste 0 -- -- 67
2018-05-22 12:00:00 18.5 7 Oeste 12 Noroeste 0 -- -- 71
2018-05-22 11:00:00 16.4 5 Oeste 12 Oeste 0 -- -- 78
2018-05-22 10:00:00 14.3 5 Norte 13 Oeste 0 -- -- 83
2018-05-22 09:00:00 12.9 2 Sudeste 13 Este 0 -- -- 90
2018-05-22 08:00:00 12.7 4 Nordeste 11 Este 0 -- -- 90
2018-05-22 07:00:00 12.4 7 Este 19 Este 0 -- -- 92
2018-05-22 06:00:00 12.7 5 Este 11 Este 0 -- -- 93
2018-05-22 05:00:00 13.1 6 Norte 12 Este 0 -- -- 94
2018-05-22 04:00:00 13.3 4 Este 8 Este 0 -- -- 95
2018-05-22 03:00:00 13.3 2 Oeste 5 Nordeste 0 -- -- 95
2018-05-22 02:00:00 13.1 3 Norte 6 Este 0 -- -- 94
2018-05-22 01:00:00 13.3 0 Calma 8 Norte 0 -- -- 93
2018-05-22 00:00:00 13.9 4 Norte 5 Norte 0 -- -- 91
2018-05-21 23:00:00 15 3 Noroeste 6 Norte 0 -- -- 87
2018-05-21 22:00:00 16.6 4 Noroeste 12 Oeste 0 -- -- 81
2018-05-21 21:00:00 18.6 5 Oeste 17 Oeste 0 -- -- 72
2018-05-21 20:00:00 20.3 9 Oeste 24 Oeste 0 -- -- 66
2018-05-21 19:00:00 21.6 15 Noroeste 31 Oeste 0 -- -- 62
2018-05-21 18:00:00 22.6 16 Oeste 27 Oeste 0 -- -- 60
2018-05-21 17:00:00 24.5 10 Noroeste 22 Oeste 0 -- -- 47
2018-05-21 16:00:00 23.5 9 Oeste 23 Sudoeste 0 -- -- 53
2018-05-21 15:00:00 22.5 5 Oeste 22 Sudoeste 0 -- -- 52
2018-05-21 14:00:00 21.8 6 Oeste 15 Sudoeste 0 -- -- 58
2018-05-21 13:00:00 21.6 6 Sur 14 Sudoeste 0 -- -- 51
2018-05-21 12:00:00 20.2 5 Sur 10 Sur 0 -- -- 55
2018-05-21 11:00:00 17.8 3 Sur 8 Sur 0 -- -- 70
2018-05-21 10:00:00 15.8 3 Sudoeste 6 Norte 0 -- -- 87
2018-05-21 09:00:00 14.1 4 Nordeste 10 Nordeste 0 -- -- 90
2018-05-21 08:00:00 12.2 3 Este 8 Sudeste 0 -- -- 94
2018-05-21 07:00:00 12.1 0 Calma 12 Sudeste 0 -- -- 94
2018-05-21 06:00:00 12 5 Sudeste 10 Sudeste 0 -- -- 93
2018-05-21 05:00:00 11.7 0 Calma 4 Norte 0 -- -- 94
2018-05-21 04:00:00 11.6 2 Este 4 Sudeste 0 -- -- 94
2018-05-21 03:00:00 11.3 4 Sudeste 9 Este 0 -- -- 92
2018-05-21 02:00:00 11.5 2 Sudeste 5 Sudeste 0 -- -- 92
2018-05-21 01:00:00 12 3 Nordeste 11 Este 0 -- -- 90
2018-05-21 00:00:00 12 6 Este 13 Sudeste 0 -- -- 91
2018-05-20 23:00:00 13 5 Nordeste 14 Nordeste 0 -- -- 89
2018-05-20 22:00:00 13.8 3 Este 17 Este 0 -- -- 88
2018-05-20 21:00:00 15.5 4 Sudeste 15 Sudeste 0 -- -- 88
2018-05-20 20:00:00 14.8 14 Este 28 Este 2.4 -- -- 86
2018-05-20 19:00:00 14.6 12 Este 20 Este 4.4 -- -- 91
2018-05-20 18:00:00 15.3 10 Noroeste 26 Oeste 0.6 -- -- 85
2018-05-20 17:00:00 19 6 Sudeste 28 Sudeste 0 -- -- 64
2018-05-20 16:00:00 19.9 15 Sudeste 27 Este 0 -- -- 61
2018-05-20 15:00:00 19 15 Este 31 Este 0.2 -- -- 67
2018-05-20 14:00:00 21.7 9 Norte 19 Nordeste 0 -- -- 65
2018-05-20 13:00:00 23.7 4 Oeste 15 Norte 0 -- -- 50
2018-05-20 12:00:00 21.9 5 Oeste 11 Oeste 0 -- -- 53
2018-05-20 11:00:00 20 4 Oeste 7 Noroeste 0 -- -- 60
2018-05-20 10:00:00 17.4 3 Noroeste 6 Sur 0 -- -- 80
2018-05-20 09:00:00 14.3 0 Calma 6 Sudeste 0 -- -- 81
2018-05-20 08:00:00 12.1 0 Calma 9 Este 0 -- -- 89
2018-05-20 07:00:00 11.8 4 Este 9 Este 0 -- -- 91
2018-05-20 06:00:00 12.3 3 Nordeste 5 Nordeste 0 -- -- 91
2018-05-20 05:00:00 12.3 2 Noroeste 12 Sudeste 0 -- -- 89
2018-05-20 04:00:00 12.6 4 Nordeste 9 Este 0 -- -- 88
2018-05-20 03:00:00 13 5 Este 10 Este 0 -- -- 87
2018-05-20 02:00:00 14.2 2 Nordeste 16 Este 0 -- -- 81
2018-05-20 01:00:00 14.5 12 Este 20 Este 0 -- -- 79
2018-05-20 00:00:00 14.1 6 Este 17 Este 0 -- -- 83
2018-05-19 23:00:00 14.3 9 Este 15 Este 0 -- -- 86
2018-05-19 22:00:00 15.8 4 Este 8 Este 0 -- -- 86
2018-05-19 21:00:00 17.3 0 Calma 8 Este 0 -- -- 77
2018-05-19 20:00:00 17.9 8 Este 18 Este 0 -- -- 70
2018-05-19 19:00:00 16.8 12 Este 39 Nordeste 0.6 -- -- 79
2018-05-19 18:00:00 23.2 13 Sur 22 Sur 0 -- -- 49
2018-05-19 17:00:00 21.4 4 Este 19 Este 0 -- -- 62
2018-05-19 16:00:00 17.3 5 Este 33 Sudeste 6.4 -- -- 72
2018-05-19 15:00:00 22.5 11 Sur 34 Sur 0 -- -- 48
2018-05-19 14:00:00 24.3 18 Sur 35 Sudoeste 0 -- -- 46
2018-05-19 13:00:00 22 18 Sur 27 Sur 0 -- -- 51
2018-05-19 12:00:00 22.5 16 Sur 26 Sur 0 -- -- 44
2018-05-19 11:00:00 21.2 3 Norte 10 Noroeste 0 -- -- 46
2018-05-19 10:00:00 18.3 2 Oeste 8 Noroeste 0 -- -- 55
2018-05-19 09:00:00 15 3 Este 6 Sudeste 0 -- -- 65
2018-05-19 08:00:00 11.3 5 Este 9 Este 0 -- -- 75
2018-05-19 07:00:00 11 2 Sudeste 10 Este 0 -- -- 74
2018-05-19 06:00:00 11.8 7 Este 12 Sudeste 0 -- -- 69
2018-05-19 05:00:00 11.5 0 Calma 7 Sudeste 0 -- -- 72
2018-05-19 04:00:00 12.1 2 Este 9 Este 0 -- -- 69
2018-05-19 03:00:00 12.2 3 Norte 8 Este 0 -- -- 67
2018-05-19 02:00:00 12.8 0 Calma 9 Este 0 -- -- 64
2018-05-19 01:00:00 13.4 2 Sudeste 11 Este 0 -- -- 60
2018-05-19 00:00:00 14.7 6 Este 9 Este 0 -- -- 57
2018-05-18 23:00:00 16.3 3 Sudeste 8 Sudeste 0 -- -- 53
2018-05-18 22:00:00 18.5 7 Este 18 Sur 0 -- -- 44
2018-05-18 21:00:00 20.5 11 Sudeste 28 Sur 0 -- -- 38
2018-05-18 20:00:00 21.9 19 Sudeste 34 Sudeste 0 -- -- 37
2018-05-18 19:00:00 22.9 18 Sur 44 Sudeste 0 -- -- 37
2018-05-18 18:00:00 23.6 21 Sur 40 Sudoeste 0 -- -- 40
2018-05-18 17:00:00 23.9 18 Sur 40 Sur 0 -- -- 42
2018-05-18 16:00:00 24 22 Sur 38 Sur 0 -- -- 44
2018-05-18 15:00:00 24.1 19 Sur 34 Sur 0 -- -- 44
2018-05-18 14:00:00 23.8 22 Sur 32 Sur 0 -- -- 37
2018-05-18 13:00:00 23.5 14 Sur 26 Sur 0 -- -- 42
2018-05-18 12:00:00 22.3 5 Oeste 13 Noroeste 0 -- -- 47
2018-05-18 11:00:00 20.4 6 Norte 13 Norte 0 -- -- 50
2018-05-18 10:00:00 17.6 5 Norte 9 Norte 0 -- -- 61
2018-05-18 09:00:00 13.5 6 Sudeste 9 Sudeste 0 -- -- 77
2018-05-18 08:00:00 12.7 6 Este 10 Este 0 -- -- 80
2018-05-18 07:00:00 12.7 6 Este 13 Sudeste 0 -- -- 79
2018-05-18 06:00:00 13.2 4 Este 13 Este 0 -- -- 76
2018-05-18 05:00:00 14.6 5 Este 20 Este 0 -- -- 70
2018-05-18 04:00:00 14.9 12 Sudeste 20 Este 0 -- -- 69
2018-05-18 03:00:00 14.3 5 Sudeste 11 Sudoeste 0 -- -- 70
2018-05-18 02:00:00 16.2 6 Sudeste 24 Este 0 -- -- 62
2018-05-18 01:00:00 16.8 14 Sudeste 27 Sudeste 0 -- -- 60
2018-05-18 00:00:00 17.1 12 Este 22 Este 0 -- -- 59
2018-05-17 23:00:00 17.6 13 Este 23 Este 0 -- -- 61
2018-05-17 22:00:00 18.3 10 Este 17 Este 0 -- -- 61
2018-05-17 21:00:00 19.9 7 Sudeste 23 Sur 0 -- -- 59
2018-05-17 20:00:00 21.3 14 Sur 30 Sur 0 -- -- 57
2018-05-17 19:00:00 22.4 17 Sudoeste 32 Sur 0 -- -- 53
2018-05-17 18:00:00 22.7 21 Sur 37 Sur 0 -- -- 54
2018-05-17 17:00:00 24 19 Sur 30 Sur 0 -- -- 48
2018-05-17 16:00:00 24.2 12 Sudoeste 26 Sudoeste 0 -- -- 47
2018-05-17 15:00:00 26.1 6 Oeste 20 Oeste 0 -- -- 38
2018-05-17 14:00:00 24.9 8 Oeste 16 Noroeste 0 -- -- 39
2018-05-17 13:00:00 23.2 7 Noroeste 13 Oeste 0 -- -- 40
2018-05-17 12:00:00 21.9 4 Oeste 8 Oeste 0 -- -- 44
2018-05-17 11:00:00 20.1 3 Noroeste 6 Noroeste 0 -- -- 43
2018-05-17 10:00:00 17.6 3 Norte 7 Norte 0 -- -- 55
2018-05-17 09:00:00 15.4 4 Sudeste 8 Sudeste 0 -- -- 54
2018-05-17 08:00:00 11.6 3 Sudeste 7 Sudeste 0 -- -- 68
2018-05-17 07:00:00 13.7 4 Este 8 Norte 0 -- -- 58
2018-05-17 06:00:00 13.9 3 Norte 12 Norte 0 -- -- 56
2018-05-17 05:00:00 15.2 3 Nordeste 14 Sudeste 0 -- -- 51
2018-05-17 04:00:00 16.7 9 Sudeste 26 Este 0 -- -- 45
2018-05-17 03:00:00 17.6 17 Sudeste 29 Sudeste 0 -- -- 43
2018-05-17 02:00:00 17.3 15 Sudeste 36 Este 0 -- -- 45
2018-05-17 01:00:00 16.9 15 Este 26 Sudeste 0 -- -- 47
2018-05-17 00:00:00 17.4 10 Sudeste 22 Este 0 -- -- 46
2018-05-16 23:00:00 17.5 10 Sudeste 24 Sudeste 0 -- -- 48
2018-05-16 22:00:00 18.2 8 Sur 21 Este 0 -- -- 50
2018-05-16 21:00:00 21.2 10 Este 20 Este 0 -- -- 44
2018-05-16 20:00:00 22.6 11 Sudoeste 24 Sur 0 -- -- 43
2018-05-16 19:00:00 24.3 14 Sur 24 Sur 0 -- -- 40
2018-05-16 18:00:00 24.7 19 Sur 39 Sur 0 -- -- 37
2018-05-16 17:00:00 25.4 21 Sur 36 Sudoeste 0 -- -- 35
2018-05-16 16:00:00 26.1 15 Sur 32 Sudoeste 0 -- -- 36
2018-05-16 15:00:00 26.4 10 Sur 31 Sudeste 0 -- -- 34
2018-05-16 14:00:00 25.1 15 Sudeste 30 Sudeste 0 -- -- 35
2018-05-16 13:00:00 24.3 14 Sudeste 31 Este 0 -- -- 37
2018-05-16 12:00:00 22.9 4 Noroeste 9 Nordeste 0 -- -- 37
2018-05-16 11:00:00 20.5 5 Norte 14 Norte 0 -- -- 44
2018-05-16 10:00:00 18.2 4 Norte 8 Norte 0 -- -- 53
2018-05-16 09:00:00 14.3 2 Sudeste 9 Norte 0 -- -- 64
2018-05-16 08:00:00 11.3 3 Este 12 Sudeste 0 -- -- 69
2018-05-16 07:00:00 10.9 9 Sudeste 15 Este 0 -- -- 71
2018-05-16 06:00:00 10.6 3 Este 15 Sudeste 0 -- -- 74
2018-05-16 05:00:00 11.7 6 Este 10 Este 0 -- -- 68
2018-05-16 04:00:00 12 5 Este 16 Este 0 -- -- 66
2018-05-16 03:00:00 11.8 4 Sudeste 11 Sudeste 0 -- -- 69
2018-05-16 02:00:00 12.9 10 Sudeste 16 Sudeste 0 -- -- 64
2018-05-16 01:00:00 13.5 4 Norte 20 Sudeste 0 -- -- 65
2018-05-16 00:00:00 14.6 12 Sudeste 18 Sudeste 0 -- -- 58
2018-05-15 23:00:00 16.5 4 Este 17 Este 0 -- -- 52
2018-05-15 22:00:00 18.3 9 Sudeste 23 Nordeste 0 -- -- 45
2018-05-15 21:00:00 21.5 12 Este 21 Este 0 -- -- 37
2018-05-15 20:00:00 23.6 10 Sur 23 Sur 0 -- -- 34
2018-05-15 19:00:00 24.6 13 Sur 22 Sudoeste 0 -- -- 32
2018-05-15 18:00:00 25 15 Sur 24 Sur 0 -- -- 30
2018-05-15 17:00:00 25.7 15 Sudoeste 23 Sudoeste 0 -- -- 31
2018-05-15 16:00:00 26 13 Sur 20 Sudoeste 0 -- -- 31
2018-05-15 15:00:00 26 10 Oeste 28 Sur 0 -- -- 29
2018-05-15 14:00:00 25.3 18 Sur 28 Sur 0 -- -- 29
2018-05-15 13:00:00 24.6 14 Sudoeste 24 Sudoeste 0 -- -- 28
2018-05-15 12:00:00 22.4 7 Norte 14 Norte 0 -- -- 38
2018-05-15 11:00:00 19.9 4 Norte 8 Noroeste 0 -- -- 49
2018-05-15 10:00:00 16.7 3 Oeste 5 Sudoeste 0 -- -- 65
2018-05-15 09:00:00 13.9 2 Sur 4 Este 0 -- -- 74
2018-05-15 08:00:00 10.1 3 Sudeste 9 Este 0 -- -- 81
2018-05-15 07:00:00 10 6 Este 10 Sudeste 0 -- -- 82
2018-05-15 06:00:00 10.5 3 Este 7 Este 0 -- -- 80
2018-05-15 05:00:00 10.8 2 Este 12 Este 0 -- -- 80
2018-05-15 04:00:00 11.4 6 Este 10 Sudeste 0 -- -- 77
2018-05-15 03:00:00 11.8 0 Calma 8 Sudeste 0 -- -- 76
2018-05-15 02:00:00 12.7 3 Este 8 Sudeste 0 -- -- 72
2018-05-15 01:00:00 14 0 Calma 8 Sudeste 0 -- -- 65
2018-05-15 00:00:00 14.8 3 Sudoeste 8 Este 0 -- -- 63
2018-05-14 23:00:00 16.7 5 Sudeste 10 Sudeste 0 -- -- 57
2018-05-14 22:00:00 19.7 4 Norte 11 Nordeste 0 -- -- 43
2018-05-14 21:00:00 22.4 5 Nordeste 26 Noroeste 0 -- -- 39
2018-05-14 20:00:00 23.9 13 Norte 29 Norte 0 -- -- 34
2018-05-14 19:00:00 24.8 17 Noroeste 33 Norte 0 -- -- 33
2018-05-14 18:00:00 25.2 19 Noroeste 35 Noroeste 0 -- -- 31
2018-05-14 17:00:00 25.4 15 Noroeste 30 Norte 0 -- -- 30
2018-05-14 16:00:00 25.5 11 Noroeste 29 Noroeste 0 -- -- 32
2018-05-14 15:00:00 25.3 8 Norte 17 Norte 0 -- -- 34
2018-05-14 14:00:00 24.4 6 Oeste 13 Noroeste 0 -- -- 31
2018-05-14 13:00:00 22.6 5 Noroeste 12 Noroeste 0 -- -- 38
2018-05-14 12:00:00 20.4 4 Oeste 10 Oeste 0 -- -- 48
2018-05-14 11:00:00 17.6 4 Oeste 9 Noroeste 0 -- -- 45
2018-05-14 10:00:00 14.2 3 Oeste 4 Noroeste 0 -- -- 64
2018-05-14 09:00:00 10.8 0 Calma 5 Norte 0 -- -- 67
2018-05-14 08:00:00 7.2 0 Calma 9 Este 0 -- -- 78
2018-05-14 07:00:00 7.4 0 Calma 6 Este 0 -- -- 77
2018-05-14 06:00:00 7.9 0 Calma 10 Este 0 -- -- 73
2018-05-14 05:00:00 8.5 6 Este 9 Este 0 -- -- 65
2018-05-14 04:00:00 9 2 Norte 8 Este 0 -- -- 69
2018-05-14 03:00:00 10.1 5 Este 10 Este 0 -- -- 62
2018-05-14 02:00:00 10.4 4 Este 9 Este 0 -- -- 65
2018-05-14 01:00:00 11.1 4 Norte 8 Noroeste 0 -- -- 65
2018-05-11 20:00:00 -- -- -- -- -- -- -- -- --
2018-05-11 19:00:00 -- -- -- -- -- -- -- -- --
2018-05-11 18:00:00 23.2 9 Oeste 25 Oeste 0 -- -- 62
2018-05-11 17:00:00 23.5 11 Oeste 23 Oeste 0 -- -- 58
2018-05-11 16:00:00 24.2 10 Sudoeste 23 Oeste 0 -- -- 51
2018-05-11 15:00:00 22.9 6 Oeste 18 Sudoeste 0 -- -- 54
2018-05-11 14:00:00 20.9 5 Oeste 19 Oeste 0 -- -- 67
2018-05-11 13:00:00 19.2 5 Norte 11 Noroeste 0 -- -- 72
2018-05-11 12:00:00 17.4 5 Noroeste 9 Oeste 0 -- -- 77
2018-05-11 11:00:00 15.9 4 Noroeste 8 Norte 0 -- -- 83
2018-05-11 10:00:00 13.4 4 Noroeste 6 Norte 0 -- -- 94
2018-05-11 09:00:00 11.3 0 Calma 5 Nordeste 0 -- -- 97
2018-05-11 08:00:00 10.6 2 Norte 4 Norte 0 -- -- 97
2018-05-11 07:00:00 9.2 2 Sudeste 10 Este 0 -- -- 95
2018-05-11 06:00:00 9.8 0 Calma 6 Este 0 -- -- 95
2018-05-11 05:00:00 10.3 0 Calma 5 Este 0 -- -- 95
2018-05-11 04:00:00 10.9 4 Este 9 Este 0 -- -- 94
2018-05-11 03:00:00 11.3 0 Calma 6 Este 0 -- -- 92
2018-05-11 02:00:00 12.2 2 Nordeste 10 Este 0 -- -- 90
2018-05-11 01:00:00 13.6 10 Este 17 Este 0 -- -- 87
2018-05-11 00:00:00 13.7 2 Este 5 Este 0 -- -- 86
2018-05-10 23:00:00 15.4 2 Norte 6 Oeste 0 -- -- 82
2018-05-10 22:00:00 16.2 3 Noroeste 9 Noroeste 0 -- -- 78
2018-05-10 21:00:00 17 5 Noroeste 15 Oeste 0 -- -- 74
2018-05-10 20:00:00 17.6 7 Noroeste 16 Oeste 0 -- -- 72
2018-05-10 19:00:00 18.8 7 Noroeste 16 Noroeste 0 -- -- 69
2018-05-10 18:00:00 19.6 7 Sudoeste 24 Oeste 0 -- -- 67
2018-05-10 17:00:00 19.8 13 Oeste 28 Sudoeste 0 -- -- 67
2018-05-10 16:00:00 22.3 10 Oeste 20 Oeste 0 -- -- 58
2018-05-10 15:00:00 20.1 8 Sudoeste 16 Sudoeste 0 -- -- 66
2018-05-10 14:00:00 18.7 4 Noroeste 13 Noroeste 0 -- -- 70
2018-05-10 13:00:00 18.8 6 Oeste 12 Oeste 0 -- -- 71
2018-05-10 12:00:00 17.5 5 Oeste 10 Oeste 0 -- -- 75
2018-05-10 11:00:00 15.5 0 Calma 4 Oeste 0 -- -- 89
2018-05-10 10:00:00 14.3 2 Este 5 Sudeste 0.2 -- -- 93
2018-05-10 09:00:00 14 3 Este 12 Sudeste 0 -- -- 91
2018-05-10 08:00:00 13.7 10 Este 14 Sudeste 0 -- -- 92
2018-05-10 07:00:00 13.7 5 Sudeste 7 Sudeste 0 -- -- 91
2018-05-10 06:00:00 13.8 5 Sudeste 9 Sudeste 0 -- -- 87
2018-05-10 05:00:00 13.9 5 Sudeste 9 Sudeste 0 -- -- 87
2018-05-10 04:00:00 14 5 Sur 15 Sudeste 0 -- -- 85
2018-05-10 03:00:00 13.9 9 Sudeste 13 Este 0 -- -- 87
2018-05-10 02:00:00 14 5 Sudeste 8 Sudeste 0 -- -- 86
2018-05-10 01:00:00 14.1 3 Sudeste 8 Sur 0 -- -- 85
2018-05-10 00:00:00 14.4 6 Sur 13 Sur 0 -- -- 84
2018-05-09 23:00:00 14.5 7 Sur 24 Sudeste 0 -- -- 83
2018-05-09 22:00:00 15.8 12 Sudeste 26 Sur 0 -- -- 79
2018-05-09 21:00:00 16.3 10 Sur 17 Sudeste 0 -- -- 82
2018-05-09 20:00:00 16.4 3 Sudeste 10 Sur 0 -- -- 85
2018-05-09 19:00:00 16 7 Sur 12 Sur 0 -- -- 88
2018-05-09 18:00:00 15.9 2 Sur 13 Sudoeste 0 -- -- 91
2018-05-09 17:00:00 16.1 7 Sudoeste 15 Sudoeste 0 -- -- 88
2018-05-09 16:00:00 16.5 5 Oeste 16 Sudoeste 0 -- -- 85
2018-05-09 15:00:00 16.9 7 Sudoeste 15 Sudoeste 0 -- -- 84
2018-05-09 14:00:00 17.2 9 Oeste 20 Oeste 0 -- -- 82
2018-05-09 13:00:00 17 10 Sudoeste 17 Sur 0 -- -- 83
2018-05-09 12:00:00 17 8 Sur 15 Sudeste 0 -- -- 80
2018-05-09 11:00:00 16.1 8 Sur 13 Sur 0 -- -- 84
2018-05-09 10:00:00 15.2 4 Sur 13 Sur 0 -- -- 88
2018-05-09 09:00:00 14.4 6 Sudeste 11 Sur 0 -- -- 91
2018-05-09 08:00:00 13.9 6 Sudeste 15 Este 0 -- -- 93
2018-05-09 07:00:00 12.9 10 Sudeste 16 Sudeste 0 -- -- 95
2018-05-09 06:00:00 12.6 9 Sudeste 15 Sudeste 0 -- -- 96
2018-05-09 05:00:00 12.3 7 Sudeste 12 Este 0 -- -- 94
2018-05-09 04:00:00 12.9 6 Sudeste 11 Este 0 -- -- 93
2018-05-09 03:00:00 13.7 5 Sudeste 8 Sudeste 0 -- -- 92
2018-05-09 02:00:00 13.9 4 Sur 7 Este 0 -- -- 91
2018-05-09 01:00:00 14.4 4 Sudeste 8 Sudeste 0 -- -- 88
2018-05-09 00:00:00 15.2 4 Este 14 Este 0 -- -- 83
2018-05-08 23:00:00 15.9 2 Este 5 Norte 0 -- -- 82
2018-05-08 22:00:00 17.1 3 Sudeste 7 Sudoeste 0 -- -- 77
2018-05-08 21:00:00 19 4 Sudoeste 12 Sudoeste 0 -- -- 70
2018-05-08 20:00:00 21.2 8 Sudoeste 25 Sudoeste 0 -- -- 65
2018-05-08 19:00:00 22.8 13 Oeste 27 Oeste 0 -- -- 62
2018-05-08 18:00:00 24.2 14 Oeste 31 Oeste 0 -- -- 59
2018-05-08 17:00:00 23.5 14 Oeste 27 Noroeste 0 -- -- 61
2018-05-08 16:00:00 24.7 11 Oeste 24 Oeste 0 -- -- 56
2018-05-08 15:00:00 24.1 10 Noroeste 19 Noroeste 0 -- -- 59
2018-05-08 14:00:00 23 4 Noroeste 15 Noroeste 0 -- -- 59
2018-05-08 13:00:00 22.1 8 Oeste 18 Oeste 0 -- -- 58
2018-05-08 12:00:00 21.1 4 Noroeste 10 Noroeste 0 -- -- 56
2018-05-08 11:00:00 18.6 0 Calma 4 Sudoeste 0 -- -- 64
2018-05-08 10:00:00 15.8 2 Norte 4 Norte 0 -- -- 80
2018-05-08 09:00:00 12.9 2 Norte 6 Este 0 -- -- 93
2018-05-08 08:00:00 11.3 2 Este 4 Sudeste 0 -- -- 95
2018-05-08 07:00:00 11.1 0 Calma 5 Este 0 -- -- 94
2018-05-08 06:00:00 11.2 0 Calma 6 Sudeste 0 -- -- 94
2018-05-08 05:00:00 11.6 5 Este 7 Este 0 -- -- 94
2018-05-08 04:00:00 11.8 0 Calma 10 Este 0 -- -- 92
2018-05-08 03:00:00 12.3 4 Este 7 Sudeste 0 -- -- 91
2018-05-08 02:00:00 13.2 3 Nordeste 6 Este 0 -- -- 89
2018-05-08 01:00:00 13.6 3 Norte 7 Norte 0 -- -- 87
2018-05-08 00:00:00 14.9 3 Norte 8 Norte 0 -- -- 84
2018-05-07 23:00:00 15.8 5 Norte 12 Este 0 -- -- 79
2018-05-07 22:00:00 17.3 6 Sudeste 12 Este 0 -- -- 71
2018-05-07 21:00:00 19.9 3 Sur 10 Sudoeste 0 -- -- 65
2018-05-07 20:00:00 22.1 8 Sudoeste 14 Oeste 0 -- -- 56
2018-05-07 19:00:00 23.2 5 Oeste 18 Sudoeste 0 -- -- 53
2018-05-07 18:00:00 23.2 11 Sudoeste 18 Sudoeste 0 -- -- 52
2018-05-07 17:00:00 24.2 12 Sudoeste 19 Sudoeste 0 -- -- 49
2018-05-07 16:00:00 23.1 9 Noroeste 16 Sudoeste 0 -- -- 52
2018-05-07 15:00:00 23.5 4 Noroeste 11 Noroeste 0 -- -- 47
2018-05-07 14:00:00 19.7 3 Norte 13 Nordeste 0 -- -- 61
2018-05-07 13:00:00 19.7 8 Norte 14 Norte 0 -- -- 57
2018-05-07 12:00:00 18.7 9 Norte 13 Norte 0 -- -- 59
2018-05-07 11:00:00 16.6 3 Noroeste 5 Noroeste 0 -- -- 75
2018-05-07 10:00:00 14 2 Noroeste 6 Sur 0 -- -- 81
2018-05-07 09:00:00 13.3 2 Nordeste 9 Este 0 -- -- 82
2018-05-07 08:00:00 11.7 4 Este 12 Este 0 -- -- 81
2018-05-07 07:00:00 11.8 2 Nordeste 10 Este 0 -- -- 80
2018-05-07 06:00:00 11.7 3 Este 11 Este 0 -- -- 81
2018-05-07 05:00:00 12.5 4 Este 9 Este 0 -- -- 77
2018-05-07 04:00:00 12.5 3 Nordeste 11 Sudeste 0 -- -- 78
2018-05-07 03:00:00 12.6 6 Norte 10 Norte 0 -- -- 78
2018-05-07 02:00:00 14.1 10 Norte 12 Norte 0 -- -- 69
2018-05-07 01:00:00 14.7 7 Norte 14 Nordeste 0 -- -- 68
2018-05-07 00:00:00 15.1 3 Noroeste 18 Sur 0 -- -- 70
2018-05-06 23:00:00 16.3 3 Norte 18 Sudeste 0 -- -- 66
2018-05-06 22:00:00 18.4 12 Sudeste 24 Sudeste 0 -- -- 57
2018-05-06 21:00:00 20 14 Sudeste 36 Sudeste 0 -- -- 53
2018-05-06 20:00:00 21.7 24 Sudeste 37 Sudeste 0 -- -- 44
2018-05-06 19:00:00 22.8 20 Sudeste 33 Sudeste 0 -- -- 44
2018-05-06 18:00:00 23.9 14 Sur 29 Sur 0 -- -- 45
2018-05-06 17:00:00 24.2 14 Sudeste 33 Sudeste 0 -- -- 43
2018-05-06 16:00:00 24.3 14 Sudeste 31 Sur 0 -- -- 46
2018-05-06 15:00:00 24.2 13 Sudeste 26 Sudeste 0 -- -- 47
2018-05-06 14:00:00 23.7 13 Sudeste 32 Sudeste 0 -- -- 48
2018-05-06 13:00:00 22.9 16 Sudeste 28 Sudeste 0 -- -- 45
2018-05-06 12:00:00 22.2 15 Sudeste 26 Este 0 -- -- 48
2018-05-06 11:00:00 21.3 13 Sudeste 24 Sudeste 0 -- -- 49
2018-05-06 10:00:00 19.5 14 Sudeste 31 Sudeste 0 -- -- 52
2018-05-06 09:00:00 15 4 Norte 11 Noroeste 0 -- -- 70
2018-05-06 08:00:00 12.5 3 Noroeste 14 Sur 0 -- -- 77
2018-05-06 07:00:00 12.5 4 Noroeste 12 Este 0 -- -- 76
2018-05-06 06:00:00 12.9 7 Este 12 Este 0 -- -- 71
2018-05-06 05:00:00 12.7 6 Nordeste 9 Norte 0 -- -- 77
2018-05-06 04:00:00 12.6 4 Norte 10 Norte 0 -- -- 81
2018-05-06 03:00:00 12 3 Noroeste 12 Sudeste 0 -- -- 87
2018-05-06 02:00:00 12.5 4 Este 14 Este 0 -- -- 84
2018-05-06 01:00:00 13.4 2 Este 10 Este 0 -- -- 87
2018-05-06 00:00:00 14.2 5 Este 12 Sudeste 0 -- -- 84
2018-05-05 23:00:00 15.8 4 Sudeste 17 Este 0 -- -- 78
2018-05-05 22:00:00 17.3 10 Este 17 Este 0 -- -- 73
2018-05-05 21:00:00 19.6 9 Sur 13 Sur 0 -- -- 65
2018-05-05 20:00:00 21.9 8 Sudoeste 13 Sur 0 -- -- 61
2018-05-05 19:00:00 22.4 6 Sur 14 Sudoeste 0 -- -- 59
2018-05-05 18:00:00 22.7 7 Sudoeste 15 Sudoeste 0 -- -- 59
2018-05-05 17:00:00 21.7 8 Sudoeste 13 Oeste 0 -- -- 62
2018-05-05 16:00:00 22 7 Sudoeste 14 Oeste 0 -- -- 59
2018-05-05 15:00:00 21.2 7 Noroeste 19 Sudoeste 0 -- -- 59
2018-05-05 14:00:00 22.6 7 Sudoeste 14 Sudoeste 0 -- -- 56
2018-05-05 13:00:00 21.2 7 Oeste 12 Oeste 0 -- -- 55
2018-05-05 12:00:00 19.4 4 Noroeste 8 Oeste 0 -- -- 65
2018-05-05 11:00:00 16.7 3 Oeste 4 Oeste 0 -- -- 80
2018-05-05 10:00:00 13.7 0 Calma 4 Sur 0 -- -- 88
2018-05-05 09:00:00 10 0 Calma 4 Sudoeste 0 -- -- 97
2018-05-05 08:00:00 7.8 5 Este 8 Este 0 -- -- 96
2018-05-05 07:00:00 7.5 0 Calma 9 Este 0 -- -- 96
2018-05-05 06:00:00 8 7 Este 9 Este 0 -- -- 96
2018-05-05 05:00:00 8 3 Norte 8 Este 0 -- -- 95
2018-05-05 04:00:00 8.4 3 Nordeste 9 Este 0 -- -- 95
2018-05-05 03:00:00 8.8 3 Nordeste 13 Este 0 -- -- 94
2018-05-05 02:00:00 8.8 3 Sudeste 9 Este 0 -- -- 94
2018-05-05 01:00:00 9.3 5 Este 10 Este 0 -- -- 94
2018-05-05 00:00:00 9.9 3 Nordeste 10 Este 0 -- -- 93
2018-05-04 23:00:00 10.6 7 Este 10 Nordeste 0 -- -- 93
2018-05-04 22:00:00 11.7 2 Nordeste 14 Sudeste 0 -- -- 90
2018-05-04 21:00:00 12.8 10 Sudeste 19 Este 0 -- -- 90
2018-05-04 20:00:00 13 14 Este 23 Este 0 -- -- 88
2018-05-04 19:00:00 12.9 13 Sudeste 25 Este 1.4 -- -- 90
2018-05-04 18:00:00 12.8 18 Este 31 Este 4.4 -- -- 87
2018-05-04 17:00:00 12.7 18 Sudeste 41 Sudeste 4 -- -- 87
2018-05-04 16:00:00 18.2 18 Sudeste 30 Sur 0 -- -- 57
2018-05-04 15:00:00 19.9 10 Oeste 24 Oeste 0 -- -- 64
2018-05-04 14:00:00 21 11 Oeste 23 Oeste 0 -- -- 61
2018-05-04 13:00:00 19 8 Oeste 17 Oeste 0 -- -- 67
2018-05-04 12:00:00 19.4 5 Sur 13 Sudoeste 0 -- -- 65
2018-05-04 11:00:00 18.5 4 Sur 10 Sudoeste 0 -- -- 72
2018-05-04 10:00:00 15.9 6 Sur 10 Sur 0 -- -- 82
2018-05-04 09:00:00 14.3 2 Sudeste 5 Sudeste 0 -- -- 84
2018-05-04 08:00:00 11.9 0 Calma 12 Este 0 -- -- 90
2018-05-04 07:00:00 12.1 6 Este 12 Este 0 -- -- 89
2018-05-04 06:00:00 12 3 Sudeste 8 Este 0 -- -- 90
2018-05-04 05:00:00 11.5 3 Sudeste 5 Este 0 -- -- 89
2018-05-04 04:00:00 12 3 Este 9 Sudeste 0 -- -- 88
2018-05-04 03:00:00 12.5 6 Este 12 Sudeste 0 -- -- 86
2018-05-04 02:00:00 12.7 0 Calma 15 Este 0 -- -- 86
2018-05-04 01:00:00 12.9 9 Sudeste 17 Sudeste 0 -- -- 85
2018-05-04 00:00:00 13.1 6 Este 10 Este 0 -- -- 85
2018-05-03 23:00:00 13.8 0 Calma 7 Sudoeste 0 -- -- 82
2018-05-03 22:00:00 15.3 4 Sudoeste 12 Oeste 0 -- -- 77
2018-05-03 21:00:00 17.5 6 Noroeste 23 Noroeste 0 -- -- 64
2018-05-03 20:00:00 21.1 10 Noroeste 23 Noroeste 0 -- -- 52
2018-05-03 19:00:00 21.9 11 Noroeste 30 Oeste 0 -- -- 39
2018-05-03 18:00:00 22.3 14 Noroeste 28 Noroeste 0 -- -- 41
2018-05-03 17:00:00 22 19 Noroeste 33 Norte 0 -- -- 42
2018-05-03 16:00:00 21.9 17 Noroeste 29 Norte 0 -- -- 42
2018-05-03 15:00:00 21.2 14 Noroeste 31 Oeste 0 -- -- 45
2018-05-03 14:00:00 20.9 13 Noroeste 24 Noroeste 0 -- -- 47
2018-05-03 13:00:00 19.9 11 Noroeste 27 Noroeste 0 -- -- 42
2018-05-03 12:00:00 18.3 17 Noroeste 31 Noroeste 0 -- -- 45
2018-05-03 11:00:00 15.3 4 Oeste 8 Sudoeste 0 -- -- 65
2018-05-03 10:00:00 11.4 3 Noroeste 6 Noroeste 0 -- -- 78
2018-05-03 09:00:00 8.5 2 Sudeste 8 Este 0 -- -- 88
2018-05-03 08:00:00 5.4 5 Este 10 Este 0 -- -- 89
2018-05-03 07:00:00 5.6 0 Calma 8 Este 0 -- -- 88
2018-05-03 06:00:00 5.6 4 Sudeste 9 Este 0 -- -- 88
2018-05-03 05:00:00 6 3 Este 9 Este 0 -- -- 88
2018-05-03 04:00:00 6.6 2 Norte 12 Este 0 -- -- 86
2018-05-03 03:00:00 6.8 3 Este 10 Este 0 -- -- 86
2018-05-03 02:00:00 7.4 0 Calma 9 Este 0 -- -- 85
2018-05-03 01:00:00 8 0 Calma 9 Este 0 -- -- 83
2018-05-03 00:00:00 8.8 3 Este 8 Este 0 -- -- 79
2018-05-02 23:00:00 10.1 3 Norte 8 Sudeste 0 -- -- 74
2018-05-02 22:00:00 11.9 2 Noroeste 8 Noroeste 0 -- -- 67
2018-05-02 21:00:00 14.6 6 Noroeste 21 Noroeste 0 -- -- 56
2018-05-02 20:00:00 16.9 12 Oeste 23 Oeste 0 -- -- 47
2018-05-02 19:00:00 18.2 13 Noroeste 24 Oeste 0 -- -- 49
2018-05-02 18:00:00 17.2 7 Oeste 24 Noroeste 0 -- -- 52
2018-05-02 17:00:00 17.7 10 Noroeste 24 Oeste 0 -- -- 52
2018-05-02 16:00:00 17.7 10 Noroeste 24 Oeste 0 -- -- 53
2018-05-02 15:00:00 18.3 9 Noroeste 21 Noroeste 0 -- -- 47
2018-05-02 14:00:00 17.6 11 Noroeste 20 Oeste -- -- -- 45
2018-05-02 13:00:00 17.2 9 Oeste 21 Oeste -- -- -- 52
2018-05-02 12:00:00 15.9 4 Noroeste 8 Noroeste -- -- -- 60
2018-05-02 11:00:00 13.5 4 Noroeste 7 Noroeste -- -- -- 68
2018-05-02 10:00:00 10.7 2 Oeste 4 Oeste -- -- -- 84
2018-05-02 09:00:00 7.7 3 Sur 6 Este -- -- -- 93
2018-05-02 08:00:00 5.2 4 Este 8 Este -- -- -- 93
2018-05-02 07:00:00 5.5 0 Calma 5 Este -- -- -- 94
2018-05-02 06:00:00 5.9 0 Calma 10 Este -- -- -- 93
2018-05-02 05:00:00 5.9 2 Sudeste 7 Este -- -- -- 93
2018-05-02 04:00:00 6.2 0 Calma 8 Este -- -- -- 91
2018-05-02 03:00:00 6.3 2 Este 10 Este -- -- -- 90
2018-05-02 02:00:00 7 2 Oeste 14 Este -- -- -- 88
2018-05-02 01:00:00 7.4 5 Este 16 Este -- -- -- 87
2018-05-02 00:00:00 7.9 5 Este 16 Este -- -- -- 86
2018-05-01 23:00:00 8.6 9 Este 17 Este -- -- -- 86
2018-05-01 22:00:00 9 6 Este 9 Este -- -- -- 85
2018-05-01 21:00:00 11.3 4 Oeste 12 Sudoeste -- -- -- 77
2018-05-01 20:00:00 13.1 5 Oeste 10 Sudoeste -- -- -- 68
2018-05-01 19:00:00 11.1 4 Sudeste 15 Norte -- -- -- 80
2018-05-01 18:00:00 10 9 Norte 41 Norte -- -- -- 81
2018-05-01 17:00:00 16.4 16 Noroeste 28 Oeste -- -- -- 50
2018-05-01 16:00:00 16.6 14 Oeste 29 Oeste -- -- -- 48
2018-05-01 15:00:00 15.4 15 Oeste 29 Oeste -- -- -- 56
2018-05-01 14:00:00 14.3 12 Sudoeste 20 Sudoeste -- -- -- 63
2018-05-01 13:00:00 14.1 9 Oeste 23 Noroeste -- -- -- 64
2018-05-01 12:00:00 14.1 9 Oeste 20 Noroeste -- -- -- 73
2018-05-01 11:00:00 13.6 3 Oeste 6 Sudoeste -- -- -- 73
2018-05-01 10:00:00 10.6 3 Noroeste 5 Noroeste -- -- -- 86
2018-05-01 09:00:00 7.7 0 Calma 6 Sudeste -- -- -- 95
2018-05-01 08:00:00 6.4 4 Sudeste 10 Este -- -- -- 94
2018-05-01 07:00:00 6.8 0 Calma 5 Este -- -- -- 93
2018-05-01 06:00:00 7.5 4 Este 5 Este -- -- -- 92
2018-05-01 05:00:00 8 2 Norte 9 Nordeste -- -- -- 90
2018-05-01 04:00:00 9.3 4 Este 15 Este -- -- -- 84
2018-05-01 03:00:00 9.7 7 Sudeste 12 Sudeste -- -- -- 87
2018-05-01 02:00:00 9.7 5 Este 8 Este -- -- -- 87
2018-05-01 01:00:00 9 2 Este 4 Nordeste -- -- -- 88
2018-05-01 00:00:00 9.4 2 Este 5 Norte -- -- -- 83
2018-04-30 23:00:00 10.6 3 Oeste 8 Oeste -- -- -- 77
2018-04-30 22:00:00 11.6 2 Noroeste 8 Oeste -- -- -- 73
2018-04-30 21:00:00 13.3 2 Noroeste 20 Oeste -- -- -- 66
2018-04-30 20:00:00 14.9 11 Noroeste 19 Oeste -- -- -- 58
2018-04-30 19:00:00 14.1 7 Noroeste 17 Oeste -- -- -- 62
2018-04-30 18:00:00 14.6 6 Oeste 19 Oeste -- -- -- 58
2018-04-30 17:00:00 14.8 10 Noroeste 22 Oeste -- -- -- 55
2018-04-30 16:00:00 15.2 14 Noroeste 23 Noroeste -- -- -- 54
2018-04-30 15:00:00 15.4 12 Noroeste 26 Oeste -- -- -- 55
2018-04-30 14:00:00 15.5 8 Noroeste 21 Noroeste -- -- -- 55
2018-04-30 13:00:00 14.7 10 Noroeste 23 Oeste -- -- -- 52
2018-04-30 12:00:00 13.5 4 Noroeste 10 Sudoeste -- -- -- 67
2018-04-30 11:00:00 11.4 4 Noroeste 9 Noroeste -- -- -- 70
2018-04-30 10:00:00 10.6 2 Oeste 5 Sudeste -- -- -- 82
2018-04-30 09:00:00 7.8 4 Sudeste 8 Sudeste -- -- -- 91
2018-04-30 08:00:00 6.7 3 Norte 9 Este -- -- -- 90
2018-04-30 07:00:00 7.2 2 Nordeste 3 Nordeste -- -- -- 89
2018-04-30 06:00:00 8.3 0 Calma 4 Nordeste -- -- -- 91
2018-04-30 05:00:00 8.7 0 Calma 3 Norte -- -- -- 92
2018-04-30 04:00:00 9.3 0 Calma 2 Norte -- -- -- 90
2018-04-30 03:00:00 9.9 2 Sudeste 3 Sudeste -- -- -- 88
2018-04-30 02:00:00 10.4 0 Calma 4 Este -- -- -- 85
2018-04-30 01:00:00 11 2 Sudeste 8 Sur -- -- -- 81
2018-04-30 00:00:00 11.3 4 Sur 10 Sur -- -- -- 79
2018-04-29 23:00:00 11.7 3 Sudoeste 11 Sudoeste -- -- -- 77
2018-04-29 22:00:00 12.2 6 Oeste 15 Sudoeste -- -- -- 73
2018-04-29 21:00:00 13.1 8 Oeste 27 Oeste -- -- -- 64
2018-04-29 20:00:00 14.3 10 Oeste 27 Oeste -- -- -- 60
2018-04-29 19:00:00 15.7 16 Oeste 38 Sudoeste -- -- -- 55
2018-04-29 18:00:00 15.7 15 Oeste 34 Oeste -- -- -- 56
2018-04-29 17:00:00 16.3 14 Oeste 37 Sudoeste -- -- -- 56
2018-04-29 16:00:00 15.7 14 Oeste 32 Oeste -- -- -- 55
2018-04-29 15:00:00 15.6 13 Oeste 32 Oeste -- -- -- 56
2018-04-29 14:00:00 14.9 18 Oeste 31 Oeste -- -- -- 56
2018-04-29 13:00:00 14.1 15 Oeste 33 Oeste -- -- -- 62
2018-04-29 12:00:00 13.3 11 Noroeste 24 Oeste 0 -- -- 71
2018-04-29 11:00:00 12 10 Oeste 17 Oeste 0.2 -- -- 76
2018-04-29 10:00:00 10.9 3 Noroeste 9 Norte 0 -- -- 81
2018-04-29 09:00:00 9.1 2 Sur 6 Norte 0 -- -- 94
2018-04-29 08:00:00 8.7 0 Calma 6 Noroeste 0.2 -- -- 91
2018-04-29 07:00:00 8.8 2 Noroeste 11 Sudoeste 0.2 -- -- 93
2018-04-29 06:00:00 8.9 5 Sudoeste 10 Sudoeste 0.2 -- -- 92
2018-04-29 05:00:00 9 3 Noroeste 15 Oeste 0.2 -- -- 90
2018-04-29 04:00:00 9 2 Sudeste 6 Sur 0 -- -- 92
2018-04-29 03:00:00 9.3 3 Sur 17 Sudoeste 0.2 -- -- 90
2018-04-29 02:00:00 9.8 12 Sudoeste 21 Sudoeste 1.2 -- -- 91
2018-04-29 01:00:00 9.6 5 Sur 17 Sudoeste 1.2 -- -- 93
2018-04-29 00:00:00 10 8 Oeste 32 Sudoeste 0.2 -- -- 89
2018-04-28 23:00:00 10.8 8 Sudeste 21 Sudoeste 0 -- -- 85
2018-04-28 22:00:00 12.3 12 Sudoeste 27 Oeste 0 -- -- 70
2018-04-28 21:00:00 13.4 11 Oeste 25 Sudoeste 0 -- -- 58
2018-04-28 20:00:00 15.2 14 Oeste 28 Sudoeste 0 -- -- 50
2018-04-28 19:00:00 16 13 Sudoeste 26 Oeste 0 -- -- 51
2018-04-28 18:00:00 17.6 13 Oeste 25 Oeste 0 -- -- 43
2018-04-28 17:00:00 17.7 10 Oeste 26 Oeste 0 -- -- 43
2018-04-28 16:00:00 17.5 13 Sudoeste 27 Sudoeste 0 -- -- 48
2018-04-28 15:00:00 17.7 12 Oeste 24 Oeste 0 -- -- 44
2018-04-28 14:00:00 17.4 10 Oeste 28 Sudoeste 0 -- -- 50
2018-04-28 13:00:00 16 13 Oeste 24 Sudoeste 0 -- -- 56
2018-04-28 12:00:00 13.8 6 Sur 15 Sudoeste 0 -- -- 73
2018-04-28 11:00:00 12.9 5 Sur 14 Oeste 0 -- -- 82
2018-04-28 10:00:00 12 4 Noroeste 15 Sudoeste 0 -- -- 89
2018-04-28 09:00:00 11.7 9 Sur 14 Sudoeste 0 -- -- 95
2018-04-28 08:00:00 11.5 0 Calma 6 Este 0 -- -- 95
2018-04-28 07:00:00 10.9 3 Oeste 8 Este 0 -- -- 94
2018-04-28 06:00:00 9.9 2 Sudeste 4 Este 0 -- -- 95
2018-04-28 05:00:00 9.7 2 Noroeste 8 Oeste 0 -- -- 93
2018-04-28 04:00:00 10.2 2 Nordeste 5 Este 0 -- -- 91
2018-04-28 03:00:00 10.7 3 Este 5 Este 0 -- -- 91
2018-04-28 02:00:00 11.5 2 Noroeste 8 Este 0 -- -- 88
2018-04-28 01:00:00 11.9 2 Nordeste 9 Este 0 -- -- 87
2018-04-28 00:00:00 12.8 5 Este 10 Este 0 -- -- 83
2018-04-27 23:00:00 14 6 Este 9 Este 0 -- -- 78
2018-04-27 22:00:00 15.7 5 Este 8 Este 0 -- -- 68
2018-04-27 21:00:00 18.8 2 Oeste 13 Oeste 0.2 -- -- 59
2018-04-27 20:00:00 21.2 8 Oeste 19 Oeste 0 -- -- 56
2018-04-27 19:00:00 22.5 12 Oeste 23 Sudoeste 0 -- -- 63
2018-04-27 18:00:00 23.5 12 Oeste 22 Sudoeste 0 -- -- 62
2018-04-27 17:00:00 23.2 8 Oeste 23 Sudoeste 0 -- -- 61
2018-04-27 16:00:00 23.1 9 Oeste 21 Norte 0 -- -- 62
2018-04-27 15:00:00 22.7 9 Noroeste 18 Noroeste 0 -- -- 59
2018-04-27 14:00:00 22.1 9 Noroeste 16 Noroeste 0 -- -- 62
2018-04-27 13:00:00 21.3 8 Noroeste 17 Noroeste 0 -- -- 66
2018-04-27 12:00:00 20.1 7 Noroeste 21 Oeste 0 -- -- 69
2018-04-27 11:00:00 19.1 4 Noroeste 8 Noroeste 0 -- -- 69
2018-04-27 10:00:00 16 0 Calma 5 Noroeste 0 -- -- 82
2018-04-27 09:00:00 13.7 0 Calma 19 Este 0.2 -- -- 86
2018-04-27 08:00:00 11.8 6 Este 14 Este 0 -- -- 92
2018-04-27 07:00:00 12.1 4 Noroeste 13 Norte 0 -- -- 89
2018-04-27 06:00:00 13.2 2 Norte 19 Sudeste 0 -- -- 85
2018-04-27 05:00:00 14.1 12 Este 19 Este 0 -- -- 81
2018-04-27 04:00:00 14.5 13 Sudeste 26 Este 0 -- -- 80
2018-04-27 03:00:00 15.3 16 Este 29 Sudeste 0 -- -- 76
2018-04-27 02:00:00 15.3 15 Sudeste 26 Este 0 -- -- 78
2018-04-27 01:00:00 15.2 10 Sur 24 Sudeste 0 -- -- 82
2018-04-27 00:00:00 15.9 11 Sudeste 26 Sudeste 0 -- -- 82
2018-04-26 23:00:00 16 10 Sudeste 23 Sudeste 0 -- -- 83
2018-04-26 22:00:00 17.2 8 Sudeste 22 Sur 0 -- -- 80
2018-04-26 21:00:00 19.3 10 Sudeste 26 Sudeste 0.2 -- -- 72
2018-04-26 20:00:00 20.6 5 Noroeste 12 Oeste 0 -- -- 74
2018-04-26 19:00:00 22 6 Oeste 13 Noroeste 0 -- -- 70
2018-04-26 18:00:00 21.9 4 Oeste 13 Norte 0 -- -- 70
2018-04-26 17:00:00 20 0 Calma 10 Oeste 0 -- -- 79
2018-04-26 16:00:00 20.3 4 Oeste 15 Sudoeste 0 -- -- 71
2018-04-26 15:00:00 20.5 6 Noroeste 17 Oeste 0 -- -- 72
2018-04-26 14:00:00 20.6 9 Noroeste 20 Noroeste 0 -- -- 71
2018-04-26 13:00:00 20.9 9 Oeste 19 Noroeste 0 -- -- 70
2018-04-26 12:00:00 20 9 Oeste 19 Oeste 0 -- -- 72
2018-04-26 11:00:00 18.4 4 Oeste 10 Oeste 0 -- -- 78
2018-04-26 10:00:00 15.9 4 Sudoeste 8 Sur 0.2 -- -- 88
2018-04-26 09:00:00 13.1 3 Sudoeste 7 Sudoeste 0 -- -- 96
2018-04-26 08:00:00 12.1 3 Nordeste 8 Sudeste 0 -- -- 95
2018-04-26 07:00:00 12.5 4 Este 8 Norte 0 -- -- 95
2018-04-26 06:00:00 13.1 2 Este 14 Este 0 -- -- 93
2018-04-26 05:00:00 13.7 6 Sudeste 17 Este 0 -- -- 93
2018-04-26 04:00:00 14.6 12 Este 22 Este 0 -- -- 92
2018-04-26 03:00:00 14.8 9 Sudeste 14 Sudeste 0 -- -- 93
2018-04-26 02:00:00 15.2 6 Sudoeste 17 Norte 0 -- -- 92
2018-04-26 01:00:00 15.8 6 Noroeste 20 Sudeste 0 -- -- 84
2018-04-26 00:00:00 16.6 10 Este 20 Este 0 -- -- 76
2018-04-25 23:00:00 16.1 7 Sudeste 13 Este 0 -- -- 82
2018-04-25 22:00:00 17.2 4 Sur 9 Sudeste 0 -- -- 80
2018-04-25 21:00:00 19.4 3 Sur 13 Sur 0 -- -- 76
2018-04-25 20:00:00 20.8 10 Sur 17 Sudoeste 0.2 -- -- 74
2018-04-25 19:00:00 22.8 7 Oeste 20 Oeste 0 -- -- 63
2018-04-25 18:00:00 22 8 Oeste 18 Oeste 0 -- -- 66
2018-04-25 17:00:00 22.4 7 Noroeste 13 Oeste 0 -- -- 64
2018-04-25 16:00:00 20.8 6 Sudoeste 19 Oeste 0 -- -- 68
2018-04-25 15:00:00 19.8 8 Oeste 17 Oeste 0 -- -- 73
2018-04-25 14:00:00 19.3 8 Noroeste 19 Oeste 0 -- -- 72
2018-04-25 13:00:00 19.2 10 Noroeste 18 Noroeste 0 -- -- 72
2018-04-25 12:00:00 17.8 2 Oeste 5 Oeste 0 -- -- 81
2018-04-25 11:00:00 16.9 2 Sur 5 Sudoeste 0 -- -- 82
2018-04-25 10:00:00 14.3 3 Oeste 4 Oeste 0 -- -- 90
2018-04-25 09:00:00 13.1 0 Calma 9 Este 0 -- -- 94
2018-04-25 08:00:00 12.4 4 Sudeste 8 Sudeste 0 -- -- 93
2018-04-25 07:00:00 12.9 4 Este 11 Este 0 -- -- 94
2018-04-25 06:00:00 13.2 4 Nordeste 14 Sudeste 0.2 -- -- 93
2018-04-25 05:00:00 13.3 4 Nordeste 8 Sudeste 0 -- -- 91
2018-04-25 04:00:00 14.5 4 Este 19 Este 0 -- -- 87
2018-04-25 03:00:00 14.3 12 Este 19 Sudeste 0 -- -- 88
2018-04-25 02:00:00 15.1 11 Este 22 Este 0 -- -- 83
2018-04-25 01:00:00 15.3 11 Este 22 Este 0 -- -- 86
2018-04-25 00:00:00 15.7 9 Este 16 Este 0 -- -- 92